nws-alerts: Checking more than four warning/county codes can delay the loading of your pages. You should use a cron job to get the data.
EllijayWeather Station Historical Data
Daily Summary for December 22, 2018 Units:  English    Metric   Both
Daily Weekly Monthly Yearly Custom
  High: Low: Average:
Temperature: 53.4 °F 28.9 °F 36.8 °F
Dew Point: 35.4 °F 11.5 °F 24.7 °F
Humidity: 94% 40% 64%
Wind Speed: 2.9mph 0mph 0.1mph
Wind Gust: 7mph - -
Wind- - WNW
Pressure: 30.26 in 29.90 in -
Precipitation: 0.01 in    
Historical Graphs
 
 
Tabular Data for December 22, 2018
Time Temperature Dew Point Pressure Wind Wind Speed Wind Gust Humidity Rainfall Rate (Hourly) solar
00:04 37.6 °F 15.4 °F 29.90 in NNE 0.9 mph 2 mph 40% 0 in meteobridge W/m2
00:09 37.6 °F 15.4 °F 29.90 in Calm   3 mph 40% 0 in meteobridge W/m2
00:14 37.6 °F 15.4 °F 29.90 in North 0.9 mph 1 mph 40% 0 in meteobridge W/m2
00:19 37.6 °F 15.4 °F 29.91 in Calm   1 mph 40% 0 in meteobridge W/m2
00:24 37.6 °F 15.4 °F 29.91 in Calm   4 mph 40% 0 in meteobridge W/m2
00:29 37.6 °F 15.4 °F 29.90 in Calm   1 mph 40% 0 in meteobridge W/m2
00:34 37.6 °F 15.4 °F 29.90 in WNW 2.9 mph 3 mph 40% 0 in meteobridge W/m2
00:39 37.4 °F 15.3 °F 29.90 in Calm   1 mph 40% 0 in meteobridge W/m2
00:44 37.4 °F 15.8 °F 29.90 in Calm     41% 0 in meteobridge W/m2
00:49 37.4 °F 15.8 °F 29.90 in Calm   3 mph 41% 0 in meteobridge W/m2
00:54 37.4 °F 15.8 °F 29.90 in Calm   3 mph 41% 0 in meteobridge W/m2
00:59 37.4 °F 15.8 °F 29.90 in Calm   1 mph 41% 0 in meteobridge W/m2
01:04 37.2 °F 15.6 °F 29.90 in Calm   1 mph 41% 0 in meteobridge W/m2
01:09 37.2 °F 16.2 °F 29.91 in Calm   2 mph 42% 0 in meteobridge W/m2
01:14 37.2 °F 16.2 °F 29.91 in Calm   1 mph 42% 0 in meteobridge W/m2
01:19 37.2 °F 15.6 °F 29.91 in Calm   1 mph 41% 0 in meteobridge W/m2
01:24 37.2 °F 15.6 °F 29.91 in Calm     41% 0 in meteobridge W/m2
01:29 37.2 °F 15.6 °F 29.91 in Calm     41% 0 in meteobridge W/m2
01:34 37.2 °F 15.6 °F 29.91 in Calm   2 mph 41% 0 in meteobridge W/m2
01:39 37.2 °F 15.6 °F 29.91 in Calm     41% 0 in meteobridge W/m2
01:44 37.2 °F 15.6 °F 29.91 in Calm   1 mph 41% 0 in meteobridge W/m2
01:49 37.2 °F 16.2 °F 29.91 in Calm     42% 0 in meteobridge W/m2
01:54 37.2 °F 16.2 °F 29.91 in Calm     42% 0 in meteobridge W/m2
01:59 37.2 °F 16.2 °F 29.91 in Calm   1 mph 42% 0 in meteobridge W/m2
02:04 37.2 °F 16.2 °F 29.91 in Calm   1 mph 42% 0 in meteobridge W/m2
02:09 37.2 °F 16.2 °F 29.91 in Calm   1 mph 42% 0 in meteobridge W/m2
02:14 37.2 °F 16.2 °F 29.92 in Calm     42% 0 in meteobridge W/m2
02:19 37 °F 16.2 °F 29.92 in Calm     42% 0 in meteobridge W/m2
02:24 37 °F 16.2 °F 29.93 in Calm     42% 0 in meteobridge W/m2
02:28 37 °F 15.4 °F 29.93 in Calm     41% 0 in meteobridge W/m2
02:34 37 °F 15.4 °F 29.94 in Calm     41% 0 in meteobridge W/m2
02:39 37 °F 15.4 °F 29.94 in Calm   2 mph 41% 0 in meteobridge W/m2
02:44 37 °F 15.4 °F 29.94 in Calm     41% 0 in meteobridge W/m2
02:49 37 °F 15.4 °F 29.95 in Calm     41% 0 in meteobridge W/m2
02:54 37 °F 15.4 °F 29.96 in NW 2 mph 3 mph 41% 0 in meteobridge W/m2
02:59 37 °F 15.4 °F 29.96 in Calm     41% 0 in meteobridge W/m2
03:04 37 °F 15.4 °F 29.96 in Calm     41% 0 in meteobridge W/m2
03:09 37 °F 15.4 °F 29.96 in Calm     41% 0 in meteobridge W/m2
03:14 37 °F 15.4 °F 29.97 in Calm   1 mph 41% 0 in meteobridge W/m2
03:19 37 °F 15.4 °F 29.98 in Calm   2 mph 41% 0 in meteobridge W/m2
03:24 37 °F 15.4 °F 29.98 in Calm     41% 0.01 in meteobridge W/m2
03:29 36.9 °F 16 °F 29.98 in Calm     42% 0.01 in meteobridge W/m2
03:34 36.9 °F 16 °F 29.98 in Calm     42% 0.01 in meteobridge W/m2
03:39 36.9 °F 16 °F 29.98 in Calm     42% 0.01 in meteobridge W/m2
03:44 36.9 °F 16.5 °F 29.99 in Calm   1 mph 43% 0.01 in meteobridge W/m2
03:49 36.9 °F 16.5 °F 29.99 in WNW 0.9 mph 4 mph 43% 0.01 in meteobridge W/m2
03:54 36.9 °F 17.4 °F 29.99 in Calm     45% 0.01 in meteobridge W/m2
03:59 36.9 °F 17.4 °F 29.99 in WNW 0.9 mph 1 mph 45% 0.01 in meteobridge W/m2
04:04 36.9 °F 18 °F 29.99 in Calm     46% 0.01 in meteobridge W/m2
04:09 36.7 °F 17.8 °F 30.00 in Calm   1 mph 46% 0.01 in meteobridge W/m2
04:14 36.7 °F 18.3 °F 30.00 in Calm   1 mph 47% 0.01 in meteobridge W/m2
04:19 36.5 °F 18.1 °F 30.00 in NW 0.9 mph 1 mph 47% 0.01 in meteobridge W/m2
04:24 36.3 °F 19 °F 30.00 in Calm   3 mph 49% 0 in meteobridge W/m2
04:29 36.3 °F 19.4 °F 30.01 in WNW 0.9 mph 1 mph 50% 0 in meteobridge W/m2
04:34 36.3 °F 19.9 °F 30.01 in Calm     51% 0 in meteobridge W/m2
04:39 36.3 °F 20.8 °F 30.01 in Calm   2 mph 53% 0 in meteobridge W/m2
04:44 36.1 °F 21.9 °F 30.01 in Calm   5 mph 56% 0 in meteobridge W/m2
04:49 36.1 °F 21.9 °F 30.01 in Calm     56% 0 in meteobridge W/m2
04:54 36.1 °F 21.9 °F 30.01 in Calm     56% 0 in meteobridge W/m2
04:59 36.1 °F 21.9 °F 30.01 in Calm   1 mph 56% 0 in meteobridge W/m2
05:04 36.1 °F 22.8 °F 30.02 in Calm     58% 0 in meteobridge W/m2
05:09 36 °F 22.6 °F 30.02 in Calm   3 mph 58% 0 in meteobridge W/m2
05:14 36 °F 21.7 °F 30.02 in Calm     56% 0 in meteobridge W/m2
05:19 35.8 °F 20.8 °F 30.02 in Calm     54% 0 in meteobridge W/m2
05:24 35.6 °F 20.1 °F 30.02 in Calm     53% 0 in meteobridge W/m2
05:29 35.4 °F 19 °F 30.02 in Calm     51% 0 in meteobridge W/m2
05:34 35.2 °F 18.5 °F 30.03 in Calm   2 mph 50% 0 in meteobridge W/m2
05:39 35.1 °F 17.8 °F 30.03 in Calm     49% 0 in meteobridge W/m2
05:44 35.1 °F 17.8 °F 30.03 in Calm     49% 0 in meteobridge W/m2
05:49 34.9 °F 17.2 °F 30.03 in Calm     48% 0 in meteobridge W/m2
05:54 34.5 °F 16.9 °F 30.03 in Calm     48% 0 in meteobridge W/m2
05:59 34.3 °F 16.7 °F 30.04 in Calm     48% 0 in meteobridge W/m2
06:04 34.3 °F 16.7 °F 30.04 in Calm     48% 0 in meteobridge W/m2
06:09 34.2 °F 16.5 °F 30.04 in Calm   1 mph 48% 0 in meteobridge W/m2
06:14 34 °F 15.8 °F 30.04 in Calm     47% 0 in meteobridge W/m2
06:19 34 °F 16.3 °F 30.04 in Calm     48% 0 in meteobridge W/m2
06:24 33.6 °F 16 °F 30.05 in Calm     48% 0 in meteobridge W/m2
06:29 33.6 °F 16 °F 30.05 in Calm     48% 0 in meteobridge W/m2
06:34 33.4 °F 15.4 °F 30.05 in Calm   2 mph 47% 0 in meteobridge W/m2
06:39 33.4 °F 15.4 °F 30.05 in Calm   2 mph 47% 0 in meteobridge W/m2
06:44 33.4 °F 15.4 °F 30.05 in Calm     47% 0 in meteobridge W/m2
06:49 33.3 °F 15.3 °F 30.05 in Calm     47% 0 in meteobridge W/m2
06:54 33.3 °F 14.7 °F 30.06 in Calm     46% 0 in meteobridge W/m2
06:59 33.1 °F 14.5 °F 30.06 in Calm     46% 0 in meteobridge W/m2
07:04 32.9 °F 14.4 °F 30.06 in Calm     46% 0 in meteobridge W/m2
07:09 32.7 °F 14.2 °F 30.07 in Calm     46% 0 in meteobridge W/m2
07:14 32.7 °F 14.2 °F 30.07 in Calm     46% 0 in meteobridge W/m2
07:19 32.5 °F 14 °F 30.08 in Calm     46% 0 in meteobridge W/m2
07:24 32.5 °F 13.6 °F 30.08 in Calm     45% 0 in meteobridge W/m2
07:29 32.5 °F 13.6 °F 30.08 in Calm     45% 0 in meteobridge W/m2
07:34 32.4 °F 13.5 °F 30.09 in Calm     45% 0 in meteobridge W/m2
07:39 32.4 °F 12.9 °F 30.09 in Calm     44% 0 in meteobridge W/m2
07:44 32.4 °F 12.9 °F 30.09 in Calm     44% 0 in meteobridge W/m2
07:49 32.4 °F 12.9 °F 30.10 in Calm     44% 0 in meteobridge W/m2
07:54 32.4 °F 12.9 °F 30.10 in Calm     44% 0 in meteobridge W/m2
07:59 32.2 °F 12.7 °F 30.11 in Calm     44% 0 in meteobridge W/m2
08:04 32.2 °F 12.2 °F 30.11 in Calm     43% 0 in meteobridge W/m2
08:09 32.2 °F 12.2 °F 30.11 in Calm     43% 0 in meteobridge W/m2
08:14 32.2 °F 12.2 °F 30.11 in Calm     43% 0 in meteobridge W/m2
08:19 32.2 °F 12.2 °F 30.12 in Calm     43% 0 in meteobridge W/m2
08:24 32.2 °F 12.2 °F 30.12 in Calm     43% 0 in meteobridge W/m2
08:29 32.2 °F 11.7 °F 30.12 in Calm     42% 0 in meteobridge W/m2
08:34 32.4 °F 11.8 °F 30.13 in Calm     42% 0 in meteobridge W/m2
08:39 32.5 °F 12 °F 30.13 in Calm     42% 0 in meteobridge W/m2
08:44 32.5 °F 11.5 °F 30.13 in Calm     41% 0 in meteobridge W/m2
08:49 32.7 °F 11.7 °F 30.14 in Calm     41% 0 in meteobridge W/m2
08:54 33.1 °F 12 °F 30.14 in Calm   2 mph 41% 0 in meteobridge W/m2
08:59 33.3 °F 12 °F 30.15 in Calm     41% 0 in meteobridge W/m2
09:04 33.4 °F 12.2 °F 30.15 in Calm   2 mph 41% 0 in meteobridge W/m2
09:09 33.6 °F 12.4 °F 30.15 in Calm     41% 0 in meteobridge W/m2
09:14 34 °F 12.7 °F 30.16 in Calm     41% 0 in meteobridge W/m2
09:19 34.3 °F 13.1 °F 30.16 in NW 0.9 mph 1 mph 41% 0 in meteobridge W/m2
09:24 34.5 °F 13.3 °F 30.16 in Calm     41% 0 in meteobridge W/m2
09:29 34.7 °F 14.5 °F 30.16 in Calm     43% 0 in meteobridge W/m2
09:34 35.1 °F 14.9 °F 30.16 in Calm     43% 0 in meteobridge W/m2
09:39 35.1 °F 15.8 °F 30.16 in Calm     45% 0 in meteobridge W/m2
09:44 35.2 °F 17.1 °F 30.17 in Calm   1 mph 47% 0 in meteobridge W/m2
09:49 35.4 °F 18.1 °F 30.17 in Calm     49% 0 in meteobridge W/m2
09:54 36 °F 19 °F 30.17 in Calm     50% 0 in meteobridge W/m2
09:59 36.3 °F 20.3 °F 30.17 in Calm     52% 0 in meteobridge W/m2
10:04 36.7 °F 22.8 °F 30.18 in Calm     57% 0 in meteobridge W/m2
10:09 37 °F 24.8 °F 30.18 in WNW 0.9 mph 3 mph 61% 0 in meteobridge W/m2
10:14 37 °F 25.7 °F 30.19 in Calm     63% 0 in meteobridge W/m2
10:19 37.2 °F 25.7 °F 30.19 in Calm     63% 0 in meteobridge W/m2
10:24 37.2 °F 27 °F 30.19 in Calm   5 mph 66% 0 in meteobridge W/m2
10:29 37.6 °F 27 °F 30.19 in Calm     65% 0 in meteobridge W/m2
10:34 37.8 °F 28.9 °F 30.19 in Calm     70% 0 in meteobridge W/m2
10:39 37.9 °F 29.7 °F 30.18 in WNW 0.9 mph 1 mph 72% 0 in meteobridge W/m2
10:44 37.9 °F 30 °F 30.19 in Calm     73% 0 in meteobridge W/m2
10:49 38.1 °F 30.6 °F 30.19 in Calm   2 mph 74% 0 in meteobridge W/m2
10:54 38.3 °F 30.7 °F 30.19 in Calm   2 mph 74% 0 in meteobridge W/m2
10:59 38.5 °F 30.9 °F 30.19 in Calm     74% 0 in meteobridge W/m2
11:04 38.7 °F 30.7 °F 30.19 in Calm     73% 0 in meteobridge W/m2
11:09 38.8 °F 30.9 °F 30.19 in Calm     73% 0 in meteobridge W/m2
11:14 39 °F 31.5 °F 30.19 in NW 0.9 mph 2 mph 74% 0 in meteobridge W/m2
11:19 39.6 °F 32 °F 30.19 in Calm   5 mph 74% 0 in meteobridge W/m2
11:24 39.7 °F 32.5 °F 30.19 in Calm   7 mph 75% 0 in meteobridge W/m2
11:29 40.1 °F 32.5 °F 30.18 in Calm     74% 0 in meteobridge W/m2
11:34 40.3 °F 32.7 °F 30.18 in Calm   1 mph 74% 0 in meteobridge W/m2
11:39 40.3 °F 33.1 °F 30.18 in WNW 2.9 mph 4 mph 75% 0 in meteobridge W/m2
11:44 40.5 °F 32.9 °F 30.17 in West 2 mph 5 mph 74% 0 in meteobridge W/m2
11:49 40.5 °F 32.5 °F 30.18 in Calm   4 mph 73% 0 in meteobridge W/m2
11:54 40.6 °F 32.7 °F 30.17 in WSW 0.9 mph 7 mph 73% 0 in meteobridge W/m2
11:59 40.6 °F 32 °F 30.17 in Calm   3 mph 71% 0 in meteobridge W/m2
12:04 41 °F 32.4 °F 30.17 in Calm   2 mph 71% 0 in meteobridge W/m2
12:09 41.4 °F 33.4 °F 30.17 in Calm   2 mph 73% 0 in meteobridge W/m2
12:14 41.5 °F 33.8 °F 30.17 in Calm   3 mph 74% 0 in meteobridge W/m2
12:19 41.5 °F 33.8 °F 30.17 in Calm   2 mph 74% 0 in meteobridge W/m2
12:24 41.7 °F 33.6 °F 30.17 in Calm     73% 0 in meteobridge W/m2
12:29 41.9 °F 34.2 °F 30.17 in Calm     74% 0 in meteobridge W/m2
12:34 41.9 °F 33.8 °F 30.17 in NNW 2.9 mph 4 mph 73% 0 in meteobridge W/m2
12:39 42.1 °F 34.3 °F 30.16 in Calm   1 mph 74% 0 in meteobridge W/m2
12:44 42.3 °F 34.5 °F 30.16 in Calm     74% 0 in meteobridge W/m2
12:49 42.4 °F 34.3 °F 30.16 in Calm     73% 0 in meteobridge W/m2
12:54 42.4 °F 34 °F 30.16 in Calm   1 mph 72% 0 in meteobridge W/m2
12:59 42.6 °F 34.5 °F 30.16 in Calm     73% 0 in meteobridge W/m2
13:04 43 °F 34.5 °F 30.16 in Calm   2 mph 72% 0 in meteobridge W/m2
13:09 43.2 °F 35.1 °F 30.16 in Calm     73% 0 in meteobridge W/m2
13:14 43.3 °F 34.9 °F 30.17 in Calm   1 mph 72% 0 in meteobridge W/m2
13:18 43.7 °F 35.2 °F 30.16 in Calm   1 mph 72% 0 in meteobridge W/m2
13:24 43.9 °F 34.7 °F 30.16 in Calm   3 mph 70% 0 in meteobridge W/m2
13:29 43.9 °F 34.7 °F 30.16 in Calm   3 mph 70% 0 in meteobridge W/m2
13:34 44.1 °F 34.9 °F 30.16 in Calm   3 mph 70% 0 in meteobridge W/m2
13:39 44.1 °F 34.2 °F 30.16 in Calm     68% 0 in meteobridge W/m2
13:44 44.2 °F 35.4 °F 30.16 in Calm     71% 0 in meteobridge W/m2
13:49 44.4 °F 35.2 °F 30.16 in Calm     70% 0 in meteobridge W/m2
13:54 44.4 °F 34.9 °F 30.17 in Calm   1 mph 69% 0 in meteobridge W/m2
13:59 44.4 °F 34.5 °F 30.17 in Calm     68% 0 in meteobridge W/m2
14:04 44.6 °F 34 °F 30.17 in Calm   3 mph 66% 0 in meteobridge W/m2
14:09 44.6 °F 34.7 °F 30.17 in NW 0.9 mph 1 mph 68% 0 in meteobridge W/m2
14:14 44.6 °F 34 °F 30.17 in NW 2 mph 2 mph 66% 0 in meteobridge W/m2
14:19 44.8 °F 34.2 °F 30.16 in Calm   3 mph 66% 0 in meteobridge W/m2
14:24 45 °F 34.7 °F 30.16 in NW 2 mph 3 mph 67% 0 in meteobridge W/m2
14:29 45 °F 34 °F 30.16 in NW 0.9 mph 3 mph 65% 0 in meteobridge W/m2
14:34 45.1 °F 34.2 °F 30.16 in Calm   2 mph 65% 0 in meteobridge W/m2
14:39 45.1 °F 34.2 °F 30.17 in Calm     65% 0 in meteobridge W/m2
14:44 45.1 °F 34.2 °F 30.17 in Calm   1 mph 65% 0 in meteobridge W/m2
14:49 45.1 °F 34.2 °F 30.17 in Calm     65% 0 in meteobridge W/m2
14:54 45.9 °F 34.7 °F 30.17 in Calm     65% 0 in meteobridge W/m2
14:59 53.4 °F 32.5 °F 30.17 in Calm     45% 0 in meteobridge W/m2
15:04 50.4 °F 32.9 °F 30.17 in Calm     51% 0 in meteobridge W/m2
15:09 48.6 °F 34 °F 30.17 in Calm     57% 0 in meteobridge W/m2
15:14 47.7 °F 32.4 °F 30.17 in Calm     55% 0 in meteobridge W/m2
15:19 46.9 °F 31.1 °F 30.17 in Calm   3 mph 54% 0 in meteobridge W/m2
15:24 46.6 °F 29.8 °F 30.17 in Calm     52% 0 in meteobridge W/m2
15:29 46.2 °F 33.1 °F 30.17 in Calm     60% 0 in meteobridge W/m2
15:34 45.9 °F 31.5 °F 30.17 in Calm     57% 0 in meteobridge W/m2
15:39 45.7 °F 33.4 °F 30.17 in Calm     62% 0 in meteobridge W/m2
15:44 45.5 °F 31.1 °F 30.17 in Calm     57% 0 in meteobridge W/m2
15:49 45.5 °F 31.1 °F 30.17 in Calm     57% 0 in meteobridge W/m2
15:54 45.3 °F 32.2 °F 30.17 in Calm   1 mph 60% 0 in meteobridge W/m2
15:59 45.1 °F 30.7 °F 30.17 in Calm     57% 0 in meteobridge W/m2
16:04 45 °F 33.4 °F 30.17 in Calm     64% 0 in meteobridge W/m2
16:09 44.8 °F 32.2 °F 30.16 in Calm     61% 0 in meteobridge W/m2
16:14 44.6 °F 32.7 °F 30.16 in Calm     63% 0 in meteobridge W/m2
16:19 44.4 °F 31.8 °F 30.16 in Calm     61% 0 in meteobridge W/m2
16:24 44.2 °F 34 °F 30.16 in Calm     67% 0 in meteobridge W/m2
16:29 44.1 °F 32.4 °F 30.17 in Calm     63% 0 in meteobridge W/m2
16:34 43.9 °F 32.2 °F 30.17 in Calm   1 mph 63% 0 in meteobridge W/m2
16:39 43.5 °F 34 °F 30.18 in Calm     69% 0 in meteobridge W/m2
16:44 43.3 °F 33.1 °F 30.18 in Calm     67% 0 in meteobridge W/m2
16:49 43 °F 33.8 °F 30.19 in Calm     70% 0 in meteobridge W/m2
16:54 42.6 °F 34.2 °F 30.19 in Calm     72% 0 in meteobridge W/m2
16:59 42.4 °F 34.7 °F 30.19 in Calm     74% 0 in meteobridge W/m2
17:04 42.3 °F 32.2 °F 30.19 in Calm   1 mph 67% 0 in meteobridge W/m2
17:09 42.1 °F 33.4 °F 30.19 in Calm     71% 0 in meteobridge W/m2
17:14 41.9 °F 32.9 °F 30.20 in Calm     70% 0 in meteobridge W/m2
17:19 41.7 °F 32.4 °F 30.19 in Calm     69% 0 in meteobridge W/m2
17:24 41.5 °F 31.8 °F 30.19 in Calm     68% 0 in meteobridge W/m2
17:29 41.5 °F 32.2 °F 30.19 in Calm     69% 0 in meteobridge W/m2
17:34 41.2 °F 32.5 °F 30.19 in Calm     71% 0 in meteobridge W/m2
17:39 40.8 °F 32.9 °F 30.20 in Calm     73% 0 in meteobridge W/m2
17:44 40.6 °F 32.4 °F 30.19 in Calm     72% 0 in meteobridge W/m2
17:49 40.5 °F 32.5 °F 30.19 in Calm     73% 0 in meteobridge W/m2
17:54 39.9 °F 32 °F 30.20 in Calm     73% 0 in meteobridge W/m2
17:59 39.6 °F 32 °F 30.19 in Calm     74% 0 in meteobridge W/m2
18:04 39 °F 32.2 °F 30.19 in Calm     76% 0 in meteobridge W/m2
18:09 38.8 °F 32.2 °F 30.19 in Calm     77% 0 in meteobridge W/m2
18:14 38.5 °F 31.8 °F 30.20 in Calm     77% 0 in meteobridge W/m2
18:19 38.1 °F 31.8 °F 30.20 in Calm     78% 0 in meteobridge W/m2
18:24 37.6 °F 31.6 °F 30.20 in Calm     79% 0 in meteobridge W/m2
18:29 37.4 °F 31.8 °F 30.20 in Calm     80% 0 in meteobridge W/m2
18:34 37 °F 31.8 °F 30.21 in Calm     81% 0 in meteobridge W/m2
18:39 36.7 °F 31.6 °F 30.21 in Calm     82% 0 in meteobridge W/m2
18:44 36.3 °F 31.3 °F 30.20 in Calm     82% 0 in meteobridge W/m2
18:49 36 °F 31.3 °F 30.21 in Calm     83% 0 in meteobridge W/m2
18:54 35.8 °F 31.1 °F 30.21 in Calm     83% 0 in meteobridge W/m2
18:58 35.4 °F 31.1 °F 30.21 in Calm     84% 0 in meteobridge W/m2
19:04 34.2 °F 29.8 °F 30.22 in Calm     84% 0 in meteobridge W/m2
19:09 34 °F 30.2 °F 30.22 in Calm     86% 0 in meteobridge W/m2
19:14 33.6 °F 29.8 °F 30.22 in Calm     86% 0 in meteobridge W/m2
19:19 33.4 °F 29.7 °F 30.22 in Calm     86% 0 in meteobridge W/m2
19:24 33.3 °F 29.8 °F 30.22 in Calm     87% 0 in meteobridge W/m2
19:29 33.3 °F 29.8 °F 30.22 in Calm     87% 0 in meteobridge W/m2
19:34 32.9 °F 29.5 °F 30.22 in Calm     87% 0 in meteobridge W/m2
19:39 32.7 °F 29.5 °F 30.22 in Calm     88% 0 in meteobridge W/m2
19:44 32.5 °F 29.3 °F 30.22 in Calm     88% 0 in meteobridge W/m2
19:49 32.4 °F 29.5 °F 30.22 in Calm     89% 0 in meteobridge W/m2
19:54 32.2 °F 29.3 °F 30.22 in Calm     89% 0 in meteobridge W/m2
19:59 32 °F 29.1 °F 30.22 in Calm     89% 0 in meteobridge W/m2
20:04 31.8 °F 28.9 °F 30.22 in Calm     89% 0 in meteobridge W/m2
20:09 31.6 °F 29.1 °F 30.22 in Calm     90% 0 in meteobridge W/m2
20:14 31.5 °F 28.9 °F 30.22 in Calm     90% 0 in meteobridge W/m2
20:19 31.5 °F 28.9 °F 30.23 in Calm     90% 0 in meteobridge W/m2
20:24 31.5 °F 28.9 °F 30.23 in Calm     90% 0 in meteobridge W/m2
20:29 31.3 °F 28.9 °F 30.23 in Calm     91% 0 in meteobridge W/m2
20:34 31.3 °F 28.9 °F 30.24 in Calm     91% 0 in meteobridge W/m2
20:39 30.9 °F 28.6 °F 30.24 in Calm     91% 0 in meteobridge W/m2
20:44 30.9 °F 28.6 °F 30.24 in Calm     91% 0 in meteobridge W/m2
20:49 30.9 °F 28.6 °F 30.24 in Calm     91% 0 in meteobridge W/m2
20:54 30.7 °F 28.4 °F 30.24 in Calm     91% 0 in meteobridge W/m2
20:59 30.6 °F 28.6 °F 30.24 in Calm     92% 0 in meteobridge W/m2
21:04 30.6 °F 28.6 °F 30.24 in Calm     92% 0 in meteobridge W/m2
21:09 30.4 °F 28.4 °F 30.24 in Calm     92% 0 in meteobridge W/m2
21:14 30.4 °F 28.4 °F 30.24 in Calm     92% 0 in meteobridge W/m2
21:19 30.2 °F 28.2 °F 30.24 in Calm     92% 0 in meteobridge W/m2
21:24 30 °F 28 °F 30.24 in Calm     92% 0 in meteobridge W/m2
21:29 29.8 °F 27.9 °F 30.24 in Calm     92% 0 in meteobridge W/m2
21:34 29.8 °F 27.9 °F 30.24 in Calm     92% 0 in meteobridge W/m2
21:39 29.7 °F 27.7 °F 30.25 in Calm     92% 0 in meteobridge W/m2
21:44 29.7 °F 27.7 °F 30.25 in Calm     92% 0 in meteobridge W/m2
21:49 29.5 °F 27.5 °F 30.25 in Calm     92% 0 in meteobridge W/m2
21:54 29.5 °F 27.5 °F 30.25 in Calm     92% 0 in meteobridge W/m2
21:59 29.3 °F 27.5 °F 30.25 in Calm     93% 0 in meteobridge W/m2
22:04 29.3 °F 27.5 °F 30.25 in Calm     93% 0 in meteobridge W/m2
22:09 29.3 °F 27.5 °F 30.25 in Calm     93% 0 in meteobridge W/m2
22:14 29.1 °F 27.3 °F 30.25 in Calm     93% 0 in meteobridge W/m2
22:19 29.3 °F 27.9 °F 30.25 in Calm     94% 0 in meteobridge W/m2
22:24 29.3 °F 27.5 °F 30.25 in Calm     93% 0 in meteobridge W/m2
22:29 29.3 °F 27.9 °F 30.25 in Calm     94% 0 in meteobridge W/m2
22:34 29.3 °F 27.9 °F 30.25 in Calm     94% 0 in meteobridge W/m2
22:39 29.5 °F 28 °F 30.25 in Calm     94% 0 in meteobridge W/m2
22:44 29.5 °F 28 °F 30.25 in Calm     94% 0 in meteobridge W/m2
22:49 29.5 °F 28 °F 30.25 in Calm     94% 0 in meteobridge W/m2
22:54 29.5 °F 28 °F 30.25 in Calm     94% 0 in meteobridge W/m2
22:59 29.5 °F 28 °F 30.25 in Calm     94% 0 in meteobridge W/m2
23:04 29.5 °F 28 °F 30.25 in Calm     94% 0 in meteobridge W/m2
23:09 29.5 °F 28 °F 30.25 in Calm     94% 0 in meteobridge W/m2
23:14 29.5 °F 28 °F 30.25 in Calm     94% 0 in meteobridge W/m2
23:19 29.5 °F 28 °F 30.25 in Calm     94% 0 in meteobridge W/m2
23:24 29.5 °F 28 °F 30.25 in Calm     94% 0 in meteobridge W/m2
23:29 29.3 °F 27.9 °F 30.25 in Calm     94% 0 in meteobridge W/m2
23:34 29.3 °F 27.9 °F 30.25 in Calm     94% 0 in meteobridge W/m2
23:39 29.3 °F 27.9 °F 30.26 in Calm     94% 0 in meteobridge W/m2
23:44 29.1 °F 27.7 °F 30.26 in Calm     94% 0 in meteobridge W/m2
23:49 29.1 °F 27.7 °F 30.26 in Calm     94% 0 in meteobridge W/m2
23:54 28.9 °F 27.5 °F 30.26 in Calm     94% 0 in meteobridge W/m2
23:59 28.9 °F 27.5 °F 30.26 in Calm     94% 0 in meteobridge W/m2
EllijayWeather
Compliments of Weather Underground - 2.5 mb